createdAt,value
2019-03-19T00:00:16.916Z,7.90
2019-03-19T00:02:46.196Z,12.80
2019-03-19T00:05:14.882Z,9.68
2019-03-19T00:07:43.919Z,11.05
2019-03-19T00:10:13.441Z,14.05
2019-03-19T00:12:42.243Z,14.38
2019-03-19T00:15:12.004Z,10.65
2019-03-19T00:17:40.928Z,17.23
2019-03-19T00:20:12.848Z,17.62
2019-03-19T00:22:41.891Z,11.30
2019-03-19T00:25:11.530Z,13.13
2019-03-19T00:27:40.693Z,15.98
2019-03-19T00:30:17.174Z,11.63
2019-03-19T00:32:46.585Z,12.88
2019-03-19T00:35:15.617Z,13.85
2019-03-19T00:37:44.901Z,19.17
2019-03-19T00:40:15.025Z,13.48
2019-03-19T00:42:43.945Z,15.53
2019-03-19T00:45:14.445Z,13.00
2019-03-19T00:47:43.707Z,12.60
2019-03-19T00:50:13.582Z,12.93
2019-03-19T00:52:42.515Z,11.22
2019-03-19T00:55:11.912Z,13.08
2019-03-19T00:57:40.835Z,11.97
2019-03-19T01:00:12.632Z,15.93
2019-03-19T01:02:41.565Z,14.40
2019-03-19T01:05:10.719Z,16.25
2019-03-19T01:07:39.639Z,11.75
2019-03-19T01:10:13.719Z,15.95
2019-03-19T01:12:42.638Z,16.45
2019-03-19T01:15:12.886Z,14.95
2019-03-19T01:17:41.806Z,14.78
2019-03-19T01:20:13.258Z,14.47
2019-03-19T01:22:42.292Z,14.93
2019-03-19T01:25:11.806Z,14.55
2019-03-19T01:27:41.098Z,13.03
2019-03-19T01:30:13.129Z,13.95
2019-03-19T01:32:42.054Z,15.03
2019-03-19T01:35:10.881Z,21.30
2019-03-19T01:37:40.026Z,21.12
2019-03-19T01:40:10.975Z,17.52
2019-03-19T01:42:39.903Z,18.95
2019-03-19T01:45:10.625Z,14.47
2019-03-19T01:47:39.659Z,18.47
2019-03-19T01:50:16.032Z,13.75
2019-03-19T01:52:45.302Z,18.70
2019-03-19T01:55:14.950Z,14.33
2019-03-19T01:57:44.226Z,20.72
2019-03-19T02:00:15.429Z,16.82
2019-03-19T02:02:44.594Z,14.13
2019-03-19T02:05:13.632Z,13.40
2019-03-19T02:07:42.677Z,20.15
2019-03-19T02:10:13.755Z,16.00
2019-03-19T02:12:43.111Z,13.45
2019-03-19T02:15:14.246Z,12.70
2019-03-19T02:17:43.402Z,19.62
2019-03-19T02:20:14.240Z,14.90
2019-03-19T02:22:43.402Z,14.70
2019-03-19T02:25:12.447Z,16.50
2019-03-19T02:27:41.492Z,26.97
2019-03-19T02:30:14.880Z,17.05
2019-03-19T02:32:44.055Z,14.45
2019-03-19T02:35:13.179Z,14.40
2019-03-19T02:37:42.578Z,18.87
2019-03-19T03:10:38.023Z,15.50
2019-03-19T03:13:06.837Z,19.30
2019-03-19T03:15:35.389Z,19.20
2019-03-19T03:18:04.515Z,16.77
2019-03-19T03:20:33.193Z,19.65
2019-03-19T03:23:01.771Z,15.70
2019-03-19T03:25:30.512Z,16.10
2019-03-19T03:27:59.288Z,18.40
2019-03-19T03:30:27.915Z,24.23
2019-03-19T03:32:56.582Z,21.80
2019-03-19T03:35:25.201Z,21.97
2019-03-19T03:37:53.788Z,18.30
2019-03-19T03:40:22.358Z,17.48
2019-03-19T03:42:51.043Z,16.80
2019-03-19T03:45:20.757Z,14.78
2019-03-19T03:47:49.475Z,17.15
2019-03-19T03:50:18.699Z,21.57
2019-03-19T03:52:47.394Z,19.35
2019-03-19T03:55:17.009Z,17.95
2019-03-19T03:57:45.723Z,15.50
2019-03-19T04:00:26.236Z,20.35
2019-03-19T04:02:54.884Z,19.65
2019-03-19T04:05:23.694Z,22.50
2019-03-19T04:07:52.312Z,23.52
2019-03-19T04:10:20.962Z,26.73
2019-03-19T04:12:49.741Z,20.60
2019-03-19T04:15:19.067Z,23.67
2019-03-19T04:17:47.706Z,19.57
2019-03-19T04:20:17.474Z,24.07
2019-03-19T04:22:46.186Z,19.15
2019-03-19T04:25:15.397Z,20.90
2019-03-19T04:27:44.053Z,21.30
2019-03-19T04:30:20.375Z,18.98
2019-03-19T04:32:49.023Z,23.60
2019-03-19T04:35:17.743Z,26.17
2019-03-19T04:37:46.300Z,19.73
2019-03-19T04:40:16.011Z,24.75
2019-03-19T04:42:45.223Z,20.95
2019-03-19T04:45:17.678Z,21.25
2019-03-19T04:47:46.475Z,28.90
2019-03-19T04:50:16.010Z,22.82
2019-03-19T04:52:44.755Z,21.87
2019-03-19T04:55:19.224Z,20.37
2019-03-19T04:57:47.823Z,20.97
2019-03-19T05:00:17.340Z,25.97
2019-03-19T05:02:46.020Z,29.02
2019-03-19T05:05:14.735Z,26.33
2019-03-19T05:07:43.373Z,21.75
2019-03-19T05:10:14.166Z,21.75
2019-03-19T05:12:42.899Z,27.10
2019-03-19T05:15:11.796Z,23.00
2019-03-19T05:17:40.710Z,22.75
2019-03-19T05:20:14.359Z,22.35
2019-03-19T05:22:43.123Z,24.98
2019-03-19T05:25:12.133Z,20.10
2019-03-19T05:27:40.868Z,21.23
2019-03-19T05:30:14.439Z,22.67
2019-03-19T05:32:43.135Z,24.05
2019-03-19T05:35:11.717Z,28.77
2019-03-19T05:37:40.359Z,27.45
2019-03-19T05:40:13.963Z,29.37
2019-03-19T05:42:42.819Z,28.00
2019-03-19T05:45:12.722Z,24.27
2019-03-19T05:47:41.448Z,25.00
2019-03-19T05:50:15.750Z,26.80
2019-03-19T05:52:44.478Z,31.97
2019-03-19T05:55:13.191Z,30.45
2019-03-19T05:57:49.613Z,30.48
2019-03-19T06:00:20.439Z,29.63
2019-03-19T06:02:49.089Z,28.55
2019-03-19T06:05:17.965Z,32.65
2019-03-19T06:07:46.602Z,30.23
2019-03-19T06:10:15.587Z,29.25
2019-03-19T06:12:44.206Z,28.62
2019-03-19T06:15:14.325Z,34.73
2019-03-19T06:17:43.054Z,56.45
2019-03-19T06:20:19.539Z,28.85
2019-03-19T06:22:48.257Z,43.52
2019-03-19T06:25:17.257Z,32.25
2019-03-19T06:27:45.960Z,33.28
2019-03-19T06:30:19.495Z,36.88
2019-03-19T06:32:48.129Z,34.83
2019-03-19T06:35:17.457Z,33.13
2019-03-19T06:37:46.164Z,29.92
2019-03-19T06:40:15.956Z,29.20
2019-03-19T06:42:44.615Z,31.10
2019-03-19T06:45:14.723Z,25.85
2019-03-19T06:47:43.625Z,27.62
2019-03-19T06:50:15.995Z,25.30
2019-03-19T06:52:44.826Z,26.23
2019-03-19T06:55:14.660Z,25.57
2019-03-19T06:57:43.353Z,28.92
2019-03-19T07:00:17.733Z,26.68
2019-03-19T07:02:46.357Z,28.15
2019-03-19T07:05:16.518Z,24.43
2019-03-19T07:07:45.180Z,31.35
2019-03-19T07:10:15.114Z,27.02
2019-03-19T07:12:43.710Z,28.15
2019-03-19T07:15:17.164Z,28.92
2019-03-19T07:17:45.853Z,29.42
2019-03-19T07:20:22.991Z,29.98
2019-03-19T07:22:51.740Z,29.52
2019-03-19T07:25:20.379Z,31.65
2019-03-19T07:27:48.959Z,30.68
2019-03-19T07:30:27.425Z,31.87
2019-03-19T07:32:56.127Z,28.62
2019-03-19T07:35:24.772Z,36.85
2019-03-19T07:37:53.412Z,39.67
2019-03-19T07:40:22.261Z,43.98
2019-03-19T07:42:50.920Z,37.98
2019-03-19T07:45:21.905Z,41.08
2019-03-19T07:47:51.311Z,38.00
2019-03-19T07:50:22.995Z,47.55
2019-03-19T07:55:19.497Z,40.33
2019-03-19T07:57:48.112Z,33.28
2019-03-19T08:00:21.293Z,26.87
2019-03-19T08:02:50.106Z,31.00
2019-03-19T08:05:18.797Z,26.17
2019-03-19T08:07:47.537Z,24.75
2019-03-19T08:10:20.039Z,26.52
2019-03-19T08:12:48.736Z,26.25
2019-03-19T08:15:21.129Z,24.43
2019-03-19T08:17:49.887Z,25.68
2019-03-19T08:20:18.880Z,21.42
2019-03-19T08:22:47.596Z,20.43
2019-03-19T08:25:17.019Z,20.45
2019-03-19T08:27:45.742Z,24.57
2019-03-19T08:30:24.521Z,21.90
2019-03-19T08:32:52.825Z,17.60
2019-03-19T08:35:21.456Z,18.77
2019-03-19T08:37:50.296Z,18.40
2019-03-19T08:40:19.455Z,20.50
2019-03-19T08:42:48.175Z,24.90
2019-03-19T08:45:22.477Z,18.50
2019-03-19T08:47:51.118Z,21.27
2019-03-19T08:50:23.960Z,18.65
2019-03-19T08:52:54.991Z,25.15
2019-03-19T08:55:22.941Z,26.23
2019-03-19T08:57:51.589Z,22.90
2019-03-19T09:00:21.461Z,24.10
2019-03-19T09:02:50.061Z,19.35
2019-03-19T09:05:18.590Z,18.10
2019-03-19T09:07:47.162Z,22.45
2019-03-19T09:10:17.766Z,22.13
2019-03-19T09:12:48.528Z,22.63
2019-03-19T09:15:22.513Z,21.35
2019-03-19T09:17:51.177Z,16.12
2019-03-19T09:20:19.808Z,20.72
2019-03-19T09:22:48.570Z,31.90
2019-03-19T09:25:17.205Z,24.60
2019-03-19T09:27:45.979Z,20.45
2019-03-19T09:30:21.954Z,22.30
2019-03-19T09:32:50.474Z,21.52
2019-03-19T09:35:19.189Z,20.17
2019-03-19T09:37:57.856Z,19.23
2019-03-19T09:40:19.340Z,11.60
2019-03-19T09:42:48.061Z,13.72
2019-03-19T09:45:17.894Z,14.68
2019-03-19T09:47:47.296Z,9.95
2019-03-19T09:50:18.393Z,11.97
2019-03-19T09:52:47.105Z,9.63
2019-03-19T09:55:16.025Z,11.68
2019-03-19T09:57:44.703Z,10.93
2019-03-19T10:00:18.179Z,11.50
2019-03-19T10:02:47.098Z,9.20
2019-03-19T10:05:16.215Z,11.57
2019-03-19T10:07:44.868Z,11.95
2019-03-19T10:10:18.933Z,11.60
2019-03-19T10:12:47.842Z,11.10
2019-03-19T10:15:16.863Z,13.95
2019-03-19T10:17:45.640Z,8.00
2019-03-19T10:20:19.661Z,8.53
2019-03-19T10:22:48.320Z,10.50
2019-03-19T10:25:17.477Z,11.45
2019-03-19T10:27:46.143Z,12.50
2019-03-19T10:30:17.140Z,13.53
2019-03-19T10:32:46.149Z,27.98
2019-03-19T10:35:14.819Z,11.73
2019-03-19T10:37:43.574Z,13.40
2019-03-19T10:40:14.457Z,14.90
2019-03-19T10:42:43.120Z,11.68
2019-03-19T10:45:19.999Z,13.58
2019-03-19T10:47:48.770Z,11.60
2019-03-19T10:50:28.253Z,12.53
2019-03-19T10:52:56.900Z,15.05
2019-03-19T10:55:25.637Z,13.45
2019-03-19T10:57:54.344Z,13.32
2019-03-19T11:00:25.131Z,14.65
2019-03-19T11:02:54.337Z,14.03
2019-03-19T11:05:24.107Z,11.53
2019-03-19T11:07:52.940Z,12.65
2019-03-19T11:10:22.006Z,11.15
2019-03-19T11:12:50.825Z,20.43
2019-03-19T11:15:23.620Z,25.75
2019-03-19T11:17:52.322Z,15.60
2019-03-19T11:20:21.225Z,14.65
2019-03-19T11:22:49.980Z,10.98
2019-03-19T11:25:22.169Z,10.70
2019-03-19T11:27:50.802Z,10.32
2019-03-19T11:30:24.264Z,10.90
2019-03-19T11:32:52.900Z,8.75
2019-03-19T11:35:21.858Z,13.78
2019-03-19T11:37:50.500Z,10.18
2019-03-19T11:40:20.492Z,10.25
2019-03-19T11:42:49.707Z,12.80
2019-03-19T11:45:20.067Z,8.48
2019-03-19T11:47:48.797Z,10.77
2019-03-19T11:50:24.303Z,10.10
2019-03-19T11:52:53.248Z,8.48
2019-03-19T11:55:22.055Z,10.43
2019-03-19T11:57:51.056Z,7.80
2019-03-19T12:00:26.576Z,12.37
2019-03-19T12:02:55.460Z,10.48
2019-03-19T12:05:24.165Z,8.13
2019-03-19T12:07:52.825Z,8.33
2019-03-19T12:10:21.498Z,9.50
2019-03-19T12:12:50.119Z,11.20
2019-03-19T12:15:18.638Z,8.80
2019-03-19T12:17:48.841Z,7.62
2019-03-19T12:20:17.564Z,9.05
2019-03-19T12:22:46.184Z,8.48
2019-03-19T12:25:14.770Z,9.33
2019-03-19T12:27:43.668Z,12.95
2019-03-19T12:30:22.124Z,9.80
2019-03-19T12:32:45.791Z,9.30
2019-03-19T12:35:14.813Z,8.88
2019-03-19T12:37:43.407Z,10.10
2019-03-19T12:40:15.936Z,11.88
2019-03-19T12:42:44.510Z,10.80
2019-03-19T12:45:15.799Z,11.28
2019-03-19T12:50:17.657Z,9.78
2019-03-19T12:52:46.215Z,8.70
2019-03-19T12:55:15.360Z,11.28
2019-03-19T12:57:43.991Z,12.55
2019-03-19T13:00:33.282Z,9.45
2019-03-19T13:02:53.484Z,9.83
2019-03-19T13:05:22.640Z,9.13
2019-03-19T13:07:51.345Z,8.48
2019-03-19T13:10:23.892Z,7.60
2019-03-19T13:12:52.473Z,8.75
2019-03-19T13:15:21.469Z,6.90
2019-03-19T13:17:50.375Z,7.30
2019-03-19T13:20:22.880Z,9.08
2019-03-19T13:22:51.504Z,7.55
2019-03-19T13:25:22.070Z,7.22
2019-03-19T13:27:50.929Z,13.53
2019-03-19T13:30:30.132Z,8.08
2019-03-19T13:32:58.793Z,7.97
2019-03-19T13:35:27.490Z,5.60
2019-03-19T13:37:56.050Z,9.00
2019-03-19T13:40:24.698Z,9.68
2019-03-19T13:42:53.399Z,10.50
2019-03-19T13:45:25.212Z,10.38
2019-03-19T13:47:53.791Z,9.83
2019-03-19T13:50:23.156Z,9.05
2019-03-19T13:52:51.790Z,12.68
2019-03-19T13:55:26.172Z,11.83
2019-03-19T13:57:54.736Z,9.10
2019-03-19T14:00:23.258Z,10.98
2019-03-19T14:02:51.812Z,8.40
2019-03-19T14:05:20.505Z,9.95
2019-03-19T14:07:49.169Z,9.40
2019-03-19T14:10:18.853Z,6.60
2019-03-19T14:12:48.236Z,7.20
2019-03-19T14:15:21.359Z,6.28
2019-03-19T14:17:49.860Z,8.05
2019-03-19T14:20:18.510Z,8.90
2019-03-19T14:22:47.219Z,8.25
2019-03-19T14:25:16.632Z,8.63
2019-03-19T14:27:45.364Z,11.40
2019-03-19T14:30:23.767Z,7.97
2019-03-19T14:32:52.428Z,7.75
2019-03-19T14:35:20.988Z,6.60
2019-03-19T14:37:49.610Z,9.23
2019-03-19T14:40:22.278Z,7.70
2019-03-19T14:42:50.898Z,11.93
2019-03-19T14:45:19.538Z,12.35
2019-03-19T14:47:48.364Z,6.80
2019-03-19T14:50:21.832Z,6.10
2019-03-19T14:52:50.476Z,5.30
2019-03-19T14:55:19.202Z,7.12
2019-03-19T14:57:47.750Z,9.40
2019-03-19T15:00:22.809Z,5.83
2019-03-19T15:02:51.429Z,6.10
2019-03-19T15:05:20.125Z,5.47
2019-03-19T15:07:48.730Z,7.33
2019-03-19T15:10:21.295Z,6.65
2019-03-19T15:12:49.853Z,6.75
2019-03-19T15:15:22.215Z,5.80
2019-03-19T15:17:50.863Z,6.58
2019-03-19T15:20:26.945Z,8.43
2019-03-19T15:22:55.434Z,5.80
2019-03-19T15:25:24.066Z,7.12
2019-03-19T15:27:53.106Z,5.78
2019-03-19T15:30:21.798Z,7.72
2019-03-19T15:32:50.423Z,8.90
2019-03-19T15:35:19.209Z,5.65
2019-03-19T15:37:47.899Z,5.78
2019-03-19T15:40:17.638Z,6.65
2019-03-19T15:42:46.301Z,7.05
2019-03-19T15:45:26.489Z,7.90
2019-03-19T15:47:55.073Z,8.40
2019-03-19T15:50:23.698Z,8.35
2019-03-19T15:52:52.330Z,7.97
2019-03-19T15:55:20.915Z,4.55
2019-03-19T15:57:49.610Z,4.67
2019-03-19T16:00:21.631Z,7.60
2019-03-19T16:02:50.268Z,6.92
2019-03-19T16:05:18.893Z,5.03
2019-03-19T16:07:47.606Z,5.45
2019-03-19T16:10:16.759Z,8.28
2019-03-19T16:12:45.395Z,6.90
2019-03-19T16:15:18.044Z,5.75
2019-03-19T16:17:46.704Z,9.88
2019-03-19T16:20:17.361Z,6.15
2019-03-19T16:22:45.947Z,6.37
2019-03-19T16:25:14.646Z,7.47
2019-03-19T16:27:43.281Z,5.92
2019-03-19T16:30:21.845Z,6.95
2019-03-19T16:32:50.415Z,5.53
2019-03-19T16:35:19.066Z,4.72
2019-03-19T16:37:47.754Z,8.00
2019-03-19T16:40:21.820Z,8.68
2019-03-19T16:42:50.558Z,8.20
2019-03-19T16:45:19.268Z,7.20
2019-03-19T16:47:47.902Z,4.80
2019-03-19T16:50:20.322Z,5.67
2019-03-19T16:52:49.184Z,4.45
2019-03-19T16:55:18.901Z,5.33
2019-03-19T16:57:47.491Z,7.50
2019-03-19T17:00:23.368Z,5.15
2019-03-19T17:02:52.048Z,7.95
2019-03-19T17:05:21.438Z,6.35
2019-03-19T17:07:50.087Z,8.93
2019-03-19T17:10:24.180Z,11.10
2019-03-19T17:12:52.753Z,6.65
2019-03-19T17:15:21.379Z,6.97
2019-03-19T17:17:50.110Z,6.87
2019-03-19T17:20:19.243Z,6.47
2019-03-19T17:22:48.108Z,8.98
2019-03-19T17:25:21.225Z,7.62
2019-03-19T17:27:49.850Z,10.32
2019-03-19T17:30:26.319Z,6.47
2019-03-19T17:32:54.973Z,9.10
2019-03-19T17:35:23.693Z,13.28
2019-03-19T17:37:52.261Z,13.88
2019-03-19T17:40:20.879Z,6.70
2019-03-19T17:42:49.541Z,10.90
2019-03-19T17:45:18.242Z,14.23
2019-03-19T17:47:46.971Z,11.50
2019-03-19T17:50:20.060Z,11.00
2019-03-19T17:52:50.800Z,12.13
2019-03-19T17:55:19.429Z,9.90
2019-03-19T17:57:48.133Z,11.97
2019-03-19T18:00:36.952Z,9.83
2019-03-19T18:03:05.574Z,12.68
2019-03-19T18:05:34.341Z,14.20
2019-03-19T18:08:03.064Z,11.10
2019-03-19T18:10:31.714Z,10.15
2019-03-19T18:13:00.299Z,11.57
2019-03-19T18:15:28.868Z,12.93
2019-03-19T18:17:57.421Z,10.15
2019-03-19T18:20:25.998Z,8.63
2019-03-19T18:22:54.560Z,10.20
2019-03-19T18:25:23.211Z,13.38
2019-03-19T18:27:51.845Z,14.93
2019-03-19T18:30:22.497Z,13.48
2019-03-19T18:32:51.135Z,13.08
2019-03-19T18:35:19.965Z,8.25
2019-03-19T18:37:48.728Z,11.22
2019-03-19T18:40:18.145Z,8.25
2019-03-19T18:42:47.119Z,13.03
2019-03-19T18:45:17.758Z,12.05
2019-03-19T18:47:46.378Z,11.70
2019-03-19T18:50:22.730Z,13.95
2019-03-19T18:52:51.308Z,9.40
2019-03-19T18:55:19.967Z,9.08
2019-03-19T18:57:48.526Z,12.65
2019-03-19T19:00:21.165Z,10.08
2019-03-19T19:02:51.018Z,10.18
2019-03-19T19:05:22.929Z,11.40
2019-03-19T19:07:51.587Z,11.10
2019-03-19T19:10:21.363Z,12.58
2019-03-19T19:12:50.291Z,9.03
2019-03-19T19:15:25.343Z,9.70
2019-03-19T19:17:53.960Z,9.08
2019-03-19T19:20:22.657Z,11.40
2019-03-19T19:22:51.257Z,12.95
2019-03-19T19:25:26.680Z,8.10
2019-03-19T19:27:55.464Z,8.50
2019-03-19T19:30:31.734Z,9.83
2019-03-19T19:33:02.506Z,7.12
2019-03-19T19:35:30.632Z,10.05
2019-03-19T19:37:59.316Z,8.68
2019-03-19T19:40:27.972Z,8.13
2019-03-19T19:42:56.745Z,15.08
2019-03-19T19:45:25.450Z,8.93
2019-03-19T19:47:54.115Z,12.15
2019-03-19T19:50:23.712Z,11.15
2019-03-19T19:52:52.308Z,9.73
2019-03-19T19:55:20.874Z,9.80
2019-03-19T19:57:49.508Z,9.98
2019-03-19T20:00:21.815Z,11.38
2019-03-19T20:02:50.565Z,14.70
2019-03-19T20:05:19.293Z,13.98
2019-03-19T20:07:48.001Z,13.38
2019-03-19T20:10:21.297Z,10.43
2019-03-19T20:12:49.976Z,13.75
2019-03-19T20:15:18.636Z,9.20
2019-03-19T20:17:47.267Z,12.78
2019-03-19T20:20:21.195Z,9.90
2019-03-19T20:22:49.840Z,9.20
2019-03-19T20:25:18.402Z,15.08
2019-03-19T20:27:47.159Z,12.45
2019-03-19T20:30:20.633Z,9.75
2019-03-19T20:32:49.328Z,8.28
2019-03-19T20:35:18.133Z,10.43
2019-03-19T20:37:46.825Z,11.45
2019-03-19T20:40:16.441Z,9.60
2019-03-19T20:42:45.152Z,10.23
2019-03-19T20:45:21.441Z,11.95
2019-03-19T20:47:50.060Z,15.90
2019-03-19T20:50:29.056Z,13.25
2019-03-19T20:52:57.688Z,9.15
2019-03-19T20:55:26.388Z,9.43
2019-03-19T20:57:55.039Z,11.45
2019-03-19T21:00:23.795Z,12.03
2019-03-19T21:02:52.445Z,11.28
2019-03-19T21:05:20.990Z,11.75
2019-03-19T21:07:49.562Z,13.85
2019-03-19T21:10:19.868Z,12.35
2019-03-19T21:12:48.672Z,14.73
2019-03-19T21:15:30.093Z,15.85
2019-03-19T21:17:58.967Z,15.72
2019-03-19T21:20:27.730Z,11.83
2019-03-19T21:22:56.449Z,15.08
2019-03-19T21:25:25.213Z,15.30
2019-03-19T21:27:54.097Z,11.22
2019-03-19T21:30:23.841Z,11.10
2019-03-19T21:32:52.534Z,14.13
2019-03-19T21:35:22.426Z,14.03
2019-03-19T21:37:51.378Z,10.65
2019-03-19T21:40:20.404Z,16.93
2019-03-19T21:42:49.193Z,12.88
2019-03-19T21:45:20.750Z,15.13
2019-03-19T21:50:19.829Z,11.77
2019-03-19T21:52:48.815Z,9.73
2019-03-19T21:55:17.728Z,10.88
2019-03-19T21:57:46.418Z,10.82
2019-03-19T22:00:21.956Z,11.03
2019-03-19T22:02:50.724Z,13.78
2019-03-19T22:05:19.553Z,9.93
2019-03-19T22:07:48.753Z,14.98
2019-03-19T22:10:19.777Z,15.03
2019-03-19T22:12:49.477Z,16.55
2019-03-19T22:15:20.726Z,10.45
2019-03-19T22:17:49.430Z,12.20
2019-03-19T22:20:18.569Z,12.25
2019-03-19T22:22:47.501Z,10.43
2019-03-19T22:25:16.627Z,16.32
2019-03-19T22:27:45.484Z,12.75
2019-03-19T22:30:20.728Z,13.65
2019-03-19T22:32:49.444Z,15.68
2019-03-19T22:35:18.216Z,14.33
2019-03-19T22:37:47.015Z,14.10
2019-03-19T22:40:16.800Z,10.88
2019-03-19T22:42:45.756Z,13.28
2019-03-19T22:45:18.411Z,13.95
2019-03-19T22:47:47.360Z,13.48
2019-03-19T22:50:17.303Z,16.80
2019-03-19T22:52:46.214Z,13.10
2019-03-19T22:55:15.978Z,14.23
2019-03-19T22:57:45.011Z,14.20
2019-03-19T23:00:17.958Z,13.83
2019-03-19T23:02:46.747Z,14.58
2019-03-19T23:05:15.640Z,13.68
2019-03-19T23:07:44.313Z,12.53
2019-03-19T23:10:13.542Z,17.07
2019-03-19T23:12:42.540Z,11.88
2019-03-19T23:15:12.364Z,13.75
2019-03-19T23:17:42.128Z,16.57
2019-03-19T23:20:12.623Z,18.45
2019-03-19T23:22:41.453Z,12.13
2019-03-19T23:25:10.577Z,17.25
2019-03-19T23:27:39.373Z,13.65
2019-03-19T23:30:13.157Z,16.50
2019-03-19T23:32:41.803Z,11.43
2019-03-19T23:35:10.824Z,12.40
2019-03-19T23:37:41.042Z,17.00
2019-03-19T23:40:11.905Z,10.95
2019-03-19T23:42:40.458Z,16.27
2019-03-19T23:45:11.022Z,14.53
2019-03-19T23:47:39.585Z,13.08
2019-03-19T23:50:13.266Z,12.65
2019-03-19T23:52:41.825Z,14.30
2019-03-19T23:55:10.955Z,13.85
2019-03-19T23:57:39.699Z,13.60
